»·PEaware :: N168JC KBZN-KLGB

N168JC :: KBZN-KLGB

FLIGHT INFORMATION

Flight Status: Arrived
Operator: Privately registered:
United States
More flights under this callsign
Pilot: Chris A. (85)
Aircraft: EMBRAER PHENOM 300
(E55P)
More flights by this aircraft type
Origin: KBZN Gallatin
United States
Destination: KLGB Long Beach
United States
More flights between these airports :: More routes between these airports
Route: +TEERX3 DBS J9 LAS NATEE DSNEE3
File this flight plan on PilotEdge
Remarks: PBN / B2B3B4C1D1O1S2 DOF / 180313 SUR / 260B CODE / 050210
Altitude:
(Current/Filed)
40,000ft
Speed:
(Current/Filed)
418kts
Departed: 13-Mar-18 06:51 PM
Arrived: 13-Mar-18 09:22 PM
Distance/Time
Traveled:
786nm/2:31
Distance/Time
To Go:
Arrived

Flight Plot

Page will automatically refresh every two minutes.

Flight plan parsing failed; only flown route is shown


Map Options




Map Legend


Flown Route
Filed Route
Departure Airport
Arrival Airport
Navaid (VOR, NDB)
Fix

Horizontal Profiles

Position Reports

Time Latitude Longitude Heading Altitude Ground
Speed
13-Mar-18 18:41 45.774889 -111.154981 138 4474ft 0kts
13-Mar-18 18:42 45.774889 -111.154981 138 4474ft 0kts
13-Mar-18 18:43 45.774889 -111.154981 138 4474ft 0kts
13-Mar-18 18:44 45.774889 -111.154981 138 4474ft 0kts
13-Mar-18 18:45 45.775943 -111.153702 348 4474ft 7kts
13-Mar-18 18:46 45.778526 -111.157271 316 4474ft 19kts
13-Mar-18 18:47 45.782111 -111.162277 315 4474ft 18kts
13-Mar-18 18:48 45.786354 -111.168165 329 4474ft 9kts
13-Mar-18 18:49 45.787208 -111.165306 137 4474ft 20kts
13-Mar-18 18:50 45.763365 -111.132475 135 5918ft 167kts
13-Mar-18 18:51 45.723322 -111.148423 244 9673ft 202kts
13-Mar-18 18:52 45.701311 -111.243732 277 12203ft 294kts
13-Mar-18 18:53 45.715856 -111.366687 276 14627ft 329kts
13-Mar-18 18:54 45.730851 -111.499773 277 17040ft 344kts
13-Mar-18 18:55 45.726116 -111.632184 232 19438ft 339kts
13-Mar-18 18:56 45.642499 -111.685180 193 21493ft 340kts
13-Mar-18 18:57 45.549837 -111.717967 193 23498ft 342kts
13-Mar-18 18:58 45.457860 -111.749738 194 25490ft 337kts
13-Mar-18 18:59 45.367427 -111.780796 194 27487ft 329kts
13-Mar-18 19:00 45.280121 -111.810683 195 29473ft 316kts
13-Mar-18 19:01 45.196618 -111.839177 196 31455ft 300kts
13-Mar-18 19:02 45.118029 -111.865914 196 33435ft 277kts
13-Mar-18 19:03 45.046565 -111.890171 196 35256ft 255kts
13-Mar-18 19:04 44.979101 -111.913012 196 36721ft 241kts
13-Mar-18 19:05 44.914839 -111.934722 197 37792ft 233kts
13-Mar-18 19:06 44.853686 -111.955316 197 38710ft 218kts
13-Mar-18 19:07 44.793858 -111.975477 197 38974ft 227kts
13-Mar-18 19:08 44.729583 -111.997065 197 39130ft 250kts
13-Mar-18 19:09 44.658270 -112.020932 197 39407ft 277kts
13-Mar-18 19:10 44.579499 -112.047236 196 39738ft 303kts
13-Mar-18 19:11 44.494324 -112.075582 196 40053ft 325kts
13-Mar-18 19:12 44.403205 -112.105828 196 40083ft 351kts
13-Mar-18 19:13 44.305326 -112.138181 196 40050ft 369kts
13-Mar-18 19:14 44.204365 -112.171451 196 40064ft 377kts
13-Mar-18 19:15 44.101032 -112.205231 194 40062ft 384kts
13-Mar-18 19:16 43.992231 -112.202340 180 40062ft 396kts
13-Mar-18 19:17 43.881370 -112.194050 180 40060ft 400kts
13-Mar-18 19:18 43.769729 -112.185840 180 40055ft 404kts
13-Mar-18 19:19 43.657103 -112.177606 180 40054ft 407kts
13-Mar-18 19:20 43.543199 -112.169313 180 40053ft 410kts
13-Mar-18 19:21 43.428905 -112.161022 180 40052ft 413kts
13-Mar-18 19:22 43.313631 -112.152692 180 40050ft 415kts
13-Mar-18 19:23 43.198438 -112.144399 181 40045ft 416kts
13-Mar-18 19:24 43.082860 -112.136111 181 40038ft 416kts
13-Mar-18 19:25 42.966876 -112.127826 181 40033ft 416kts
13-Mar-18 19:26 42.851182 -112.119593 181 40018ft 417kts
13-Mar-18 19:27 42.734910 -112.111350 181 40015ft 417kts
13-Mar-18 19:28 42.619077 -112.103169 181 40015ft 417kts
13-Mar-18 19:29 42.503054 -112.095005 181 40023ft 418kts
13-Mar-18 19:30 42.386696 -112.086850 182 40023ft 418kts
13-Mar-18 19:31 42.270459 -112.078731 182 40031ft 418kts
13-Mar-18 19:32 42.153825 -112.070615 182 40037ft 419kts
13-Mar-18 19:33 42.037461 -112.062549 182 40035ft 419kts
13-Mar-18 19:34 41.920922 -112.054499 182 40030ft 420kts
13-Mar-18 19:35 41.803810 -112.046440 182 40029ft 420kts
13-Mar-18 19:36 41.687060 -112.038434 182 40022ft 420kts
13-Mar-18 19:37 41.569850 -112.030427 182 40014ft 421kts
13-Mar-18 19:38 41.452970 -112.022469 182 40013ft 421kts
13-Mar-18 19:39 41.336121 -112.014544 182 40011ft 421kts
13-Mar-18 19:40 41.219000 -112.006629 182 40005ft 421kts
13-Mar-18 19:41 41.102258 -111.998766 182 40017ft 420kts
13-Mar-18 19:42 40.984903 -111.990897 182 40016ft 422kts
13-Mar-18 19:43 40.867760 -111.983065 183 40008ft 422kts
13-Mar-18 19:44 40.750333 -111.974687 182 40003ft 423kts
13-Mar-18 19:45 40.632556 -111.966148 182 40020ft 421kts
13-Mar-18 19:46 40.516052 -111.957762 183 40024ft 419kts
13-Mar-18 19:47 40.399449 -111.949402 183 40031ft 418kts
13-Mar-18 19:48 40.283914 -111.944216 193 40038ft 409kts
13-Mar-18 19:49 40.181154 -111.996291 209 40040ft 396kts
13-Mar-18 19:50 40.080352 -112.055151 209 40037ft 395kts
13-Mar-18 19:51 39.980042 -112.113813 209 40036ft 395kts
13-Mar-18 19:52 39.878991 -112.171459 208 40034ft 396kts
13-Mar-18 19:53 39.778076 -112.228610 208 40030ft 396kts
13-Mar-18 19:54 39.677203 -112.285595 208 40025ft 395kts
13-Mar-18 19:55 39.576194 -112.342479 208 40018ft 395kts
13-Mar-18 19:56 39.475671 -112.398910 208 40014ft 393kts
13-Mar-18 19:57 39.375066 -112.455210 208 40013ft 392kts
13-Mar-18 19:58 39.275111 -112.510970 208 40014ft 391kts
13-Mar-18 19:59 39.175445 -112.566396 208 40017ft 390kts
13-Mar-18 20:00 39.075636 -112.621732 209 40024ft 389kts
13-Mar-18 20:01 38.976372 -112.676594 208 40033ft 388kts
13-Mar-18 20:02 38.877001 -112.731346 208 40044ft 387kts
13-Mar-18 20:03 38.778129 -112.785658 209 40052ft 386kts
13-Mar-18 20:04 38.679369 -112.839746 209 40056ft 386kts
13-Mar-18 20:05 38.580353 -112.893807 209 40056ft 386kts
13-Mar-18 20:06 38.481789 -112.947459 209 40053ft 385kts
13-Mar-18 20:07 38.383401 -113.000860 209 40053ft 384kts
13-Mar-18 20:08 38.292315 -113.068716 217 40056ft 377kts
13-Mar-18 20:09 38.204050 -113.140490 217 40056ft 376kts
13-Mar-18 20:10 38.115627 -113.212109 217 40060ft 375kts
13-Mar-18 20:11 38.027616 -113.283185 217 40066ft 375kts
13-Mar-18 20:12 37.939972 -113.353751 217 40070ft 372kts
13-Mar-18 20:13 37.852571 -113.423788 217 40072ft 370kts
13-Mar-18 20:14 37.765463 -113.493206 217 40071ft 370kts
13-Mar-18 20:15 37.678083 -113.562641 217 40072ft 370kts
13-Mar-18 20:16 37.591005 -113.631650 217 40061ft 370kts
13-Mar-18 20:17 37.503968 -113.700434 217 40050ft 369kts
13-Mar-18 20:18 37.416764 -113.769158 217 40043ft 369kts
13-Mar-18 20:19 37.329923 -113.837406 217 40038ft 368kts
13-Mar-18 20:20 37.242982 -113.905544 217 40036ft 367kts
13-Mar-18 20:21 37.156462 -113.973164 217 40034ft 366kts
13-Mar-18 20:22 37.084289 -114.029429 217 40033ft 364kts
13-Mar-18 20:23 36.984176 -114.107264 217 40043ft 362kts
13-Mar-18 20:24 36.912904 -114.162529 217 40024ft 362kts
13-Mar-18 20:25 36.827347 -114.228706 217 40016ft 360kts
13-Mar-18 20:26 36.734507 -114.313509 230 40009ft 351kts
13-Mar-18 20:27 36.678638 -114.387532 230 40001ft 350kts
13-Mar-18 20:28 36.611721 -114.475512 229 39990ft 350kts
13-Mar-18 20:29 36.544777 -114.563249 229 39978ft 350kts
13-Mar-18 20:30 36.477559 -114.651100 229 39964ft 349kts
13-Mar-18 20:31 36.410619 -114.738345 229 39959ft 349kts
13-Mar-18 20:32 36.343303 -114.825673 229 39956ft 349kts
13-Mar-18 20:33 36.277489 -114.909390 229 39957ft 350kts
13-Mar-18 20:34 36.209576 -114.995622 229 39953ft 350kts
13-Mar-18 20:35 36.141400 -115.081996 228 39958ft 349kts
13-Mar-18 20:36 36.070305 -115.163932 214 39963ft 358kts
13-Mar-18 20:37 35.975578 -115.208822 208 39984ft 363kts
13-Mar-18 20:38 35.881595 -115.252596 208 39992ft 360kts
13-Mar-18 20:39 35.787882 -115.296256 208 39991ft 360kts
13-Mar-18 20:40 35.693902 -115.339943 208 39990ft 360kts
13-Mar-18 20:41 35.605935 -115.393188 228 39990ft 344kts
13-Mar-18 20:42 35.541443 -115.479692 230 39990ft 342kts
13-Mar-18 20:43 35.476765 -115.565425 230 39992ft 342kts
13-Mar-18 20:44 35.412081 -115.651101 230 39996ft 342kts
13-Mar-18 20:45 35.347177 -115.736882 230 40002ft 342kts
13-Mar-18 20:46 35.282572 -115.822056 230 40007ft 341kts
13-Mar-18 20:47 35.218067 -115.906867 230 40016ft 340kts
13-Mar-18 20:48 35.151262 -115.989400 228 40020ft 340kts
13-Mar-18 20:49 35.084674 -116.071230 228 40022ft 339kts
13-Mar-18 20:50 35.018004 -116.153172 228 40023ft 339kts
13-Mar-18 20:51 34.951704 -116.234493 228 40036ft 338kts
13-Mar-18 20:52 34.885142 -116.315932 228 38244ft 335kts
13-Mar-18 20:53 34.821313 -116.398379 231 35773ft 338kts
13-Mar-18 20:54 34.755955 -116.484440 230 33278ft 354kts
13-Mar-18 20:55 34.687151 -116.573293 227 30775ft 370kts
13-Mar-18 20:56 34.605889 -116.654070 223 28421ft 379kts
13-Mar-18 20:57 34.527171 -116.731565 223 27089ft 366kts
13-Mar-18 20:58 34.451216 -116.816171 226 24683ft 373kts
13-Mar-18 20:59 34.378918 -116.901194 226 21914ft 346kts
13-Mar-18 21:00 34.311179 -116.979703 223 18666ft 321kts
13-Mar-18 21:01 34.245010 -117.043891 213 15373ft 296kts
13-Mar-18 21:02 34.176918 -117.095889 213 12765ft 279kts
13-Mar-18 21:03 34.107698 -117.132512 204 12023ft 270kts
13-Mar-18 21:04 34.038291 -117.167392 204 12006ft 275kts
13-Mar-18 21:05 33.973455 -117.216541 233 11342ft 280kts
13-Mar-18 21:06 33.926020 -117.288482 230 9938ft 267kts
13-Mar-18 21:07 33.878113 -117.356065 229 8542ft 265kts
13-Mar-18 21:08 33.832257 -117.420914 230 8025ft 237kts
13-Mar-18 21:09 33.802835 -117.487327 247 7624ft 229kts
13-Mar-18 21:10 33.779510 -117.557467 247 7257ft 221kts
13-Mar-18 21:11 33.756867 -117.625905 247 7096ft 226kts
13-Mar-18 21:12 33.734924 -117.698007 251 6442ft 239kts
13-Mar-18 21:13 33.713265 -117.774267 250 5642ft 240kts
13-Mar-18 21:14 33.691312 -117.850633 250 4554ft 245kts
13-Mar-18 21:15 33.675081 -117.928148 267 4043ft 227kts
13-Mar-18 21:16 33.690871 -117.998399 307 3087ft 218kts
13-Mar-18 21:17 33.731060 -118.046710 314 1785ft 183kts
13-Mar-18 21:18 33.762623 -118.084746 314 1597ft 148kts
13-Mar-18 21:19 33.788260 -118.115369 315 759ft 119kts
13-Mar-18 21:20 33.811138 -118.143381 314 66ft 100kts
13-Mar-18 21:21 33.818559 -118.153501 270 63ft 11kts
13-Mar-18 21:22 33.818577 -118.156816 274 63ft 13kts
13-Mar-18 21:23 33.818171 -118.158816 358 63ft 0kts
13-Mar-18 21:24 33.818172 -118.158816 358 63ft 0kts
13-Mar-18 21:25 33.818172 -118.158816 358 63ft 0kts

Navigation Log

Ident Type
Flight plan parsing failed, navigation log unavailable